Aplicació Alertes

Dades de l'estació automàtica la Quar

?
?
Resum diari 22:30 TU
Dades diàries de l'estació meteorològica
Temperatura mitjana 2.6 °C
Temperatura màxima 8.3 °C 14:35 TU
Temperatura mínima -1.6 °C 5:48 TU
Humitat relativa mitjana 45%
Precipitació acumulada 0.0 mm
Ratxa màxima del vent (10 m) 43.2 km/h - 327º 6:46 TU
Pressió atmosfèrica mitjana 1027.1 hPa

El tram horari està expressat en Temps Universal (TU). Cal sumar una hora en horari d'hivern i dues en horari d'estiu per passar a l'hora oficial.

la Quar

Metadades estació meteorol´gica
Municipi La Quar
Comarca Berguedà
Altitud 873 m
Data alta 13.03.1996
Estat actual Operativa
Dades de període
Període
TU
TM
°C
TX
°C
TN
°C
HRM
%
PPT
mm
VVM (10 m)
km/h
DVM (10 m)
graus
VVX (10 m)
km/h
PM
hPa
00:00 - 00:30 1.6 1.9 0.9 37 0.0 6.1 314 14.0 1023.9
00:30 - 01:00 0.9 1.4 0.4 40 0.0 6.5 306 12.2 1024.4
01:00 - 01:30 1.2 1.7 0.7 39 0.0 6.1 332 14.4 1024.3
01:30 - 02:00 1.4 2.3 0.6 38 0.0 6.8 336 17.3 1024.3
02:00 - 02:30 2.3 2.7 1.6 35 0.0 7.9 349 17.6 1024.3
02:30 - 03:00 1.3 2.0 0.6 41 0.0 7.6 27 18.4 1024.7
03:00 - 03:30 0.3 0.9 -0.5 42 0.0 1.8 4 9.4 1025.3
03:30 - 04:00 -1.0 -0.2 -1.6 47 0.0 6.1 15 16.6 1025.9
04:00 - 04:30 0.0 0.7 -0.9 46 0.0 7.9 28 18.0 1025.9
04:30 - 05:00 1.0 1.3 0.6 40 0.0 10.8 49 22.3 1026.0
05:00 - 05:30 0.5 0.9 0.2 41 0.0 5.4 48 15.8 1026.1
05:30 - 06:00 -0.9 0.5 -1.6 47 0.0 4.3 37 13.7 1027.0
06:00 - 06:30 -0.6 1.1 -1.5 46 0.0 5.8 297 24.1 1027.0
06:30 - 07:00 1.7 2.6 1.0 39 0.0 13.0 338 43.2 1026.4
07:00 - 07:30 2.6 3.0 1.9 37 0.0 13.0 346 38.2 1026.4
07:30 - 08:00 2.6 2.9 2.2 37 0.0 9.0 344 18.0 1026.8
08:00 - 08:30 2.8 3.2 2.4 36 0.0 8.3 309 16.6 1027.1
08:30 - 09:00 3.5 3.9 3.1 34 0.0 7.6 297 14.0 1027.2
09:00 - 09:30 4.3 4.6 3.9 33 0.0 10.4 282 18.7 1027.2
09:30 - 10:00 4.1 4.6 3.5 35 0.0 9.0 254 15.1 1027.5
10:00 - 10:30 3.8 4.3 2.7 39 0.0 7.6 224 18.7 1027.8
10:30 - 11:00 4.2 4.9 3.1 34 0.0 10.4 238 19.1 1027.7
11:00 - 11:30 5.1 5.3 4.9 34 0.0 8.3 233 19.4 1027.1
11:30 - 12:00 5.1 5.5 4.8 40 0.0 5.8 217 14.0 1026.7
12:00 - 12:30 5.1 6.1 4.5 45 0.0 6.1 229 13.0 1026.6
12:30 - 13:00 6.5 6.8 6.1 43 0.0 6.5 218 15.5 1025.9
13:00 - 13:30 6.8 7.9 6.0 39 0.0 7.2 227 14.8 1025.5
13:30 - 14:00 7.5 8.1 6.6 33 0.0 7.9 216 19.8 1025.0
14:00 - 14:30 6.8 7.7 6.2 34 0.0 10.1 234 22.0 1025.3
14:30 - 15:00 7.9 8.3 7.3 34 0.0 8.3 228 16.6 1025.0
15:00 - 15:30 7.9 8.3 7.3 35 0.0 6.5 231 13.0 1025.2
15:30 - 16:00 6.0 7.2 4.3 43 0.0 4.3 211 11.5 1026.2
16:00 - 16:30 2.9 4.2 2.0 54 0.0 1.4 245 7.2 1027.7
16:30 - 17:00 1.6 2.0 1.3 59 0.0 2.2 314 6.1 1028.3
17:00 - 17:30 0.9 1.7 0.3 61 0.0 2.2 27 7.6 1028.8
17:30 - 18:00 0.6 1.2 0.2 63 0.0 3.2 17 9.0 1029.0
18:00 - 18:30 1.0 1.5 0.5 62 0.0 2.5 34 8.6 1029.3
18:30 - 19:00 0.5 1.0 0.2 63 0.0 3.2 329 8.3 1030.0
19:00 - 19:30 0.3 0.6 0.1 64 0.0 4.0 339 7.2 1030.4
19:30 - 20:00 0.9 1.1 0.6 59 0.0 3.6 2 7.6 1030.5
20:00 - 20:30 1.2 1.6 0.8 56 0.0 2.9 341 7.2 1030.4
20:30 - 21:00 1.3 1.8 1.0 56 0.0 3.2 325 7.2 1030.3
21:00 - 21:30 2.1 3.3 1.2 54 0.0 5.4 319 13.7 1030.0
21:30 - 22:00 1.3 1.7 0.6 57 0.0 4.0 34 9.0 1030.6
22:00 - 22:30 1.3 1.9 0.4 58 0.0 3.2 350 7.6 1030.9
22:30 - 23:00 1.7 2.8 0.9 56 0.0 4.0 32 11.9 1030.9
23:00 - 23:30 (s/d) (s/d) (s/d) (s/d) (s/d) (s/d) (s/d) (s/d) (s/d)

Les dades en taronja només han passat un control de qualitat automàtic. Resta pendent la seva validació definitiva.